Dallas, Texas
Traffic Map
Current Weather Conditions
Dallas, Texas
Few Clouds
Few Clouds
93°
Feels Like: 97°
Wind Chill: 93° Ceiling: Unl
Heat Index: 97° Visibility: 10mi
Dew Point: 68° Wind: 14mph
Humidity: 44% Direction: 170° (S)
Pressure: 30.02in Gusts: 0mph
Raw Report DataKDAL 242253Z 17012KT 10SM FEW055 FEW300 34/20 A3002 RMK AO2 SLP158 T03390200 $
Traffic Incident Summary
Active as of:
Severity:
Category:
InformationThere was an issue retrieving the traffic information for this location. Please try a different location or try again shortly.
Advertisements
Track Severe Weather on mobile